Terminal Aerodrome Forecast
Issued by NWS St Louis, MO

Home | Current Version | Previous Version | Text Only | Print | Product List | Glossary On
Versions: 1 2 3 4 5 6 7 8 9 10 11 12 13 14 15 16 17 18
504
FTUS43 KLSX 112330
TAFCOU
TAF
KCOU 112330Z 1200/1224 08005KT P6SM OVC080
     FM120300 10006KT 6SM -SN OVC060
     FM120600 11005KT 5SM -SN OVC030
     FM120900 08004KT P6SM BKN025
     FM121700 33012KT P6SM BKN020
     FM121900 33014KT P6SM SCT030=

USA.gov is the U.S. government's official web portal to all federal, state and local government web resources and services.